Canton, OH

12:04 AM EDT on July 31, 2016 (GMT -0400)
Akron-Canton Regional | | Change Station

Elev 1237 ft 40.92 °N, 81.44 °W | Updated 13 minutes ago

Scattered Clouds
Scattered Clouds
70 °F
Feels Like 70 °F
N
4
Wind Variable Wind from ESE

Today
High -- | Low -- °F
--% Chance of Precip.
Yesterday
High -- | Low -- °F
Precip. -- in
Pressure 29.97 in
Visibility 10.0 miles
Clouds Scattered Clouds 15000 ft
Dew Point 65 °F
Humidity 84%
Rainfall 0.06 in
Snow Depth Not available.
6:21 AM 8:42 PM
Waning Crescent, 9% visible
METAR KCAK 310351Z 12003KT 10SM SCT150 21/18 A2999 RMK AO2 SLP148 T02110183
Pressure 29.97 in
Visibility 10.0 miles
Clouds Scattered Clouds 15000 ft
Dew Point 65 °F
Humidity 84%
Rainfall 0.06 in
Snow Depth Not available.
6:21 AM 8:42 PM
Waning Crescent, 9% visible
METAR KCAK 310351Z 12003KT 10SM SCT150 21/18 A2999 RMK AO2 SLP148 T02110183

10-Day Weather Forecast

Almanac

Astronomy

Jul. 31, 2016 Rise Set
Actual Time
Civil Twilight
Nautical Twilight
Astronomical Twilight
Moon
Length of Visible Light
Length of Day
Tomorrow will be .
, % of the Moon is Illuminated

Today's Extremes

State Highs State Lows

Community

WunderPhotos

Upload Photos

1,928,745 photos uploaded!

WunderBlog® & News

Nearby

Air Quality

  Air Quality AQ Index Pollutant
Not available.

Snow Depth

Station Depth Elevation

Earthquake Activity

City Distance Mag. Time & Date
Minimum magnitude displayed is 2.5.

Coastal Water Temperatures

Place Temperature

Stations

Nearby Weather Stations

Station Location Temp. Windchill Dew Point Humidity Wind Precip. Elev Updated Type
                   

Watches & Warnings

There are currently no watches in effect.